Lockridge, Iowa
Current Conditions -  °F | °C
As of 3:55 AM on Thursday 29 Jan 2015 (Local Time) from KMPZ Reporting Station
Overcast Overcast  
Wind Chill: 25°   Ceiling: 1100
Heat Index: 35°   Visibility: 7mi
Dew Point: 32°   Wind: 16mph
Humidity: 89%   Direction: 310°NW
Pressure: 29.84"   Gusts: 31mph
Location:  40.99°N, 91.75°W
Report Text: KMPZ 290955Z AUTO 31014G27KT 7SM OVC011 02/00 A2984 RMK AO2 T00160000
Loading
Personal Weather Stations






























Interactive Weather Map New forecast layout! Learn more

10-Day Weather Forecast

Advertisements
Track Severe Weather on mobile